createdAt,value
2022-09-02T00:03:37.473Z,64.40
2022-09-02T00:08:41.219Z,63.84
2022-09-02T00:13:45.196Z,63.11
2022-09-02T00:18:49.537Z,62.11
2022-09-02T00:23:53.041Z,61.48
2022-09-02T00:28:56.538Z,62.10
2022-09-02T00:34:00.090Z,61.90
2022-09-02T00:39:05.148Z,61.66
2022-09-02T00:44:12.749Z,61.37
2022-09-02T00:49:35.723Z,61.77
2022-09-02T00:54:45.505Z,62.34
2022-09-02T01:00:06.515Z,62.14
2022-09-02T01:05:12.594Z,60.67
2022-09-02T01:10:21.646Z,59.78
2022-09-02T01:15:25.608Z,66.26
2022-09-02T01:20:28.676Z,66.17
2022-09-02T01:25:34.756Z,64.90
2022-09-02T01:30:42.728Z,64.20
2022-09-02T01:35:45.992Z,64.25
2022-09-02T01:40:49.491Z,63.16
2022-09-02T01:45:55.282Z,62.53
2022-09-02T01:51:01.980Z,62.52
2022-09-02T01:56:05.086Z,62.90
2022-09-02T02:01:08.437Z,63.25
2022-09-02T02:06:14.817Z,63.21
2022-09-02T02:11:24.963Z,62.71
2022-09-02T02:16:28.219Z,61.86
2022-09-02T02:21:32.214Z,62.76
2022-09-02T02:26:36.436Z,61.88
2022-09-02T02:31:41.329Z,61.91
2022-09-02T02:36:44.600Z,62.16
2022-09-02T02:41:47.813Z,62.43
2022-09-02T02:46:51.094Z,62.41
2022-09-02T02:51:54.334Z,61.15
2022-09-02T02:56:57.344Z,61.98
2022-09-02T03:02:00.586Z,62.33
2022-09-02T03:07:05.948Z,61.81
2022-09-02T03:12:11.495Z,61.85
2022-09-02T03:17:14.586Z,61.66
2022-09-02T03:22:17.798Z,61.41
2022-09-02T03:27:20.808Z,61.12
2022-09-02T03:32:23.712Z,61.45
2022-09-02T03:37:31.121Z,61.57
2022-09-02T03:42:34.363Z,61.56
2022-09-02T03:47:40.654Z,61.79
2022-09-02T03:52:43.722Z,61.20
2022-09-02T03:57:47.243Z,61.23
2022-09-02T04:02:51.874Z,62.62
2022-09-02T04:07:55.505Z,61.20
2022-09-02T04:12:58.515Z,56.60
2022-09-02T04:18:01.416Z,58.91
2022-09-02T04:23:05.036Z,58.60
2022-09-02T04:28:08.293Z,57.97
2022-09-02T04:33:11.879Z,62.64
2022-09-02T04:38:15.500Z,60.18
2022-09-02T04:43:18.621Z,57.76
2022-09-02T04:48:22.251Z,60.16
2022-09-02T04:53:25.225Z,62.17
2022-09-02T04:58:28.744Z,58.08
2022-09-02T05:03:32.261Z,63.43
2022-09-02T05:08:39.056Z,57.89
2022-09-02T05:13:43.701Z,58.02
2022-09-02T05:18:47.015Z,53.86
2022-09-02T05:23:51.557Z,52.49
2022-09-02T05:28:57.740Z,52.69
2022-09-02T05:34:04.359Z,55.76
2022-09-02T05:39:07.745Z,56.14
2022-09-02T05:44:10.958Z,61.16
2022-09-02T05:49:21.744Z,62.71
2022-09-02T05:54:29.094Z,59.68
2022-09-02T05:59:34.036Z,59.74
2022-09-02T06:04:39.470Z,61.70
2022-09-02T06:09:44.723Z,61.62
2022-09-02T06:14:49.414Z,58.16
2022-09-02T06:19:52.570Z,60.03
2022-09-02T06:24:56.001Z,61.67
2022-09-02T06:29:59.019Z,61.86
2022-09-02T06:35:03.960Z,59.57
2022-09-02T06:40:07.777Z,60.23
2022-09-02T06:45:10.892Z,60.73
2022-09-02T06:50:13.899Z,62.02
2022-09-02T06:55:18.340Z,53.44
2022-09-02T07:00:21.551Z,49.44
2022-09-02T07:05:24.556Z,46.87
2022-09-02T07:10:27.667Z,45.53
2022-09-02T07:15:35.483Z,46.24
2022-09-02T07:20:38.696Z,48.05
2022-09-02T07:25:42.056Z,49.31
2022-09-02T07:30:45.773Z,52.22
2022-09-02T07:35:49.708Z,54.23
2022-09-02T07:40:57.107Z,55.47
2022-09-02T07:46:01.961Z,56.35
2022-09-02T07:51:06.052Z,55.75
2022-09-02T07:56:09.365Z,55.40
2022-09-02T08:01:14.414Z,54.48
2022-09-02T08:06:18.039Z,53.12
2022-09-02T08:11:32.771Z,52.95
2022-09-02T08:16:36.120Z,53.21
2022-09-02T08:21:39.251Z,51.50
2022-09-02T08:26:42.148Z,46.82
2022-09-02T08:31:45.207Z,44.02
2022-09-02T08:36:56.711Z,42.54
2022-09-02T08:42:14.004Z,42.67
2022-09-02T08:47:26.635Z,42.90
2022-09-02T08:53:00.055Z,43.67
2022-09-02T08:58:03.352Z,43.61
2022-09-02T09:03:28.494Z,44.76
2022-09-02T09:08:37.644Z,44.64
2022-09-02T09:14:01.748Z,44.27
2022-09-02T09:19:15.326Z,45.32
2022-09-02T09:24:18.789Z,45.91
2022-09-02T09:29:22.079Z,45.68
2022-09-02T09:34:25.546Z,45.18
2022-09-02T09:39:30.412Z,43.33
2022-09-02T09:44:45.676Z,42.71
2022-09-02T09:49:50.953Z,43.40
2022-09-02T09:55:24.351Z,45.19
2022-09-02T10:00:33.260Z,46.86
2022-09-02T10:05:39.916Z,48.80
2022-09-02T10:10:58.583Z,50.44
2022-09-02T10:16:12.815Z,50.16
2022-09-02T10:21:32.760Z,50.23
2022-09-02T10:26:43.546Z,47.54
2022-09-02T10:31:52.546Z,47.14
2022-09-02T10:37:17.217Z,47.83
2022-09-02T10:42:44.788Z,47.45
2022-09-02T10:48:03.257Z,48.05
2022-09-02T10:53:33.750Z,48.40
2022-09-02T10:58:46.744Z,48.27
2022-09-02T11:04:12.734Z,47.50
2022-09-02T11:09:48.574Z,48.13
2022-09-02T11:15:12.159Z,47.94
2022-09-02T11:20:41.998Z,47.08
2022-09-02T11:26:18.898Z,47.05
2022-09-02T11:31:42.679Z,46.91
2022-09-02T11:36:46.105Z,48.04
2022-09-02T11:42:01.256Z,48.42
2022-09-02T11:47:34.309Z,47.90
2022-09-02T11:53:04.865Z,48.09
2022-09-02T11:58:08.617Z,47.32
2022-09-02T12:03:38.280Z,47.20
2022-09-02T12:08:44.806Z,46.68
2022-09-02T12:18:58.505Z,46.20
2022-09-02T12:24:01.403Z,45.12
2022-09-02T12:29:12.500Z,46.10
2022-09-02T12:34:47.158Z,46.44
2022-09-02T12:39:54.660Z,46.53
2022-09-02T12:45:28.984Z,46.75
2022-09-02T12:50:44.606Z,46.50
2022-09-02T12:55:58.641Z,46.36
2022-09-02T13:01:06.528Z,46.95
2022-09-02T13:06:53.627Z,47.43
2022-09-02T13:12:02.514Z,47.52
2022-09-02T13:17:43.001Z,47.22
2022-09-02T13:23:13.097Z,46.77
2022-09-02T13:28:56.587Z,47.23
2022-09-02T13:34:11.352Z,47.18
2022-09-02T13:39:24.713Z,47.71
2022-09-02T13:44:29.807Z,47.52
2022-09-02T13:49:38.115Z,47.19
2022-09-02T13:54:46.765Z,46.67
2022-09-02T13:59:51.887Z,46.88
2022-09-02T14:04:57.437Z,46.51
2022-09-02T14:10:03.896Z,45.57
2022-09-02T14:15:10.623Z,44.91
2022-09-02T14:20:16.955Z,45.03
2022-09-02T14:25:27.213Z,45.08
2022-09-02T14:30:40.371Z,44.81
2022-09-02T14:36:15.686Z,44.29
2022-09-02T14:41:18.692Z,45.88
2022-09-02T14:46:27.543Z,47.99
2022-09-02T14:51:48.164Z,49.57
2022-09-02T14:56:53.525Z,51.22
2022-09-02T15:01:59.035Z,51.69
2022-09-02T15:07:02.089Z,51.77
2022-09-02T15:12:05.450Z,51.32
2022-09-02T15:17:12.212Z,51.81
2022-09-02T15:22:20.247Z,51.41
2022-09-02T15:27:23.334Z,52.07
2022-09-02T15:32:27.238Z,52.90
2022-09-02T15:37:30.470Z,52.79
2022-09-02T15:42:39.824Z,53.62
2022-09-02T15:47:42.933Z,54.94
2022-09-02T15:52:46.688Z,55.92
2022-09-02T15:57:49.866Z,56.43
2022-09-02T16:02:55.013Z,56.28
2022-09-02T16:07:58.273Z,55.75
2022-09-02T16:13:06.671Z,55.99
2022-09-02T16:18:09.676Z,55.75
2022-09-02T16:23:12.687Z,54.97
2022-09-02T16:28:15.793Z,54.94
2022-09-02T16:33:18.947Z,55.39
2022-09-02T16:38:22.009Z,55.92
2022-09-02T16:43:27.210Z,56.35
2022-09-02T16:48:35.915Z,57.04
2022-09-02T16:53:38.928Z,58.50
2022-09-02T16:58:42.126Z,59.90
2022-09-02T17:03:46.595Z,61.33
2022-09-02T17:08:50.699Z,60.75
2022-09-02T17:13:57.123Z,59.62
2022-09-02T17:19:02.486Z,61.44
2022-09-02T17:24:07.544Z,61.73
2022-09-02T17:29:26.223Z,59.30
2022-09-02T17:34:37.099Z,60.42
2022-09-02T17:39:40.164Z,62.32
2022-09-02T17:44:43.486Z,59.85
2022-09-02T17:49:47.676Z,62.42
2022-09-02T17:54:52.562Z,62.49
2022-09-02T18:00:02.238Z,59.86
2022-09-02T18:05:29.882Z,59.97
2022-09-02T18:10:37.132Z,65.61
2022-09-02T18:16:06.393Z,65.55
2022-09-02T18:21:32.599Z,64.00
2022-09-02T18:26:55.790Z,62.94
2022-09-02T18:32:06.074Z,61.95
2022-09-02T18:37:21.552Z,61.27
2022-09-02T18:42:50.780Z,57.31
2022-09-02T18:48:07.301Z,62.36
2022-09-02T18:53:13.477Z,63.50
2022-09-02T18:58:34.942Z,62.40
2022-09-02T19:03:38.339Z,62.23
2022-09-02T19:08:44.714Z,60.15
2022-09-02T19:13:53.589Z,62.52
2022-09-02T19:18:56.671Z,65.87
2022-09-02T19:24:02.447Z,63.10
2022-09-02T19:29:11.954Z,63.23
2022-09-02T19:34:16.502Z,62.84
2022-09-02T19:39:19.603Z,62.41
2022-09-02T19:44:22.969Z,62.13
2022-09-02T19:49:26.074Z,61.85
2022-09-02T19:54:29.490Z,59.81
2022-09-02T19:59:32.928Z,61.83
2022-09-02T20:04:37.132Z,65.46
2022-09-02T20:09:41.381Z,64.54
2022-09-02T20:14:47.251Z,64.94
2022-09-02T20:19:50.665Z,64.87
2022-09-02T20:24:55.420Z,64.04
2022-09-02T20:30:14.510Z,63.29
2022-09-02T20:35:20.309Z,61.57
2022-09-02T20:40:55.736Z,62.42
2022-09-02T20:46:06.012Z,67.76
2022-09-02T20:51:22.855Z,64.10
2022-09-02T20:56:41.457Z,64.58
2022-09-02T21:01:45.640Z,65.19
2022-09-02T21:06:57.992Z,65.24
2022-09-02T21:12:36.823Z,64.80
2022-09-02T21:17:49.554Z,65.20
2022-09-02T21:22:57.306Z,65.55
2022-09-02T21:28:19.009Z,65.01
2022-09-02T21:33:25.918Z,64.34
2022-09-02T21:38:59.259Z,64.67
2022-09-02T21:44:25.080Z,64.65
2022-09-02T21:49:56.981Z,64.31
2022-09-02T21:55:20.758Z,64.00
2022-09-02T22:00:24.385Z,63.65
2022-09-02T22:05:27.381Z,64.36
2022-09-02T22:10:41.975Z,63.95
2022-09-02T22:16:16.437Z,64.05
2022-09-02T22:21:40.199Z,64.93
2022-09-02T22:26:50.122Z,64.64
2022-09-02T22:31:57.238Z,64.51
2022-09-02T22:37:06.115Z,64.39
2022-09-02T22:42:24.784Z,64.37
2022-09-02T22:47:50.670Z,65.10
2022-09-02T22:52:57.018Z,63.62
2022-09-02T22:58:29.304Z,65.80
2022-09-02T23:03:44.236Z,67.01
2022-09-02T23:08:49.353Z,67.20
2022-09-02T23:14:16.863Z,67.10
2022-09-02T23:19:57.108Z,67.74
2022-09-02T23:25:22.131Z,67.49
2022-09-02T23:30:30.012Z,67.14
2022-09-02T23:35:36.353Z,67.27
2022-09-02T23:40:43.954Z,67.83
2022-09-02T23:45:51.438Z,68.34
2022-09-02T23:51:17.714Z,67.37
2022-09-02T23:56:49.610Z,68.46
